| time (UTC) | temp F | wind direction | speed MPH | gust MPH | rain 1hr in | rain 24hr in | rain mn in | humidity % | barometer mb |
| 20260902203518 | 94 | 269 | 0.0 | 2.0 | 0.00 | 0.00 | 0.00 | 51 | |
| 20260902202518 | 94 | 232 | 0.0 | 2.0 | 0.00 | 0.00 | 0.00 | 51 | |
| 20260902201539 | 95 | 229 | 0.0 | 2.0 | 0.00 | 0.00 | 0.00 | 52 | |
| 20260902200516 | 94 | 213 | 0.0 | 2.0 | 0.00 | 0.00 | 0.00 | 52 | |
| 20260902195517 | 94 | 229 | 1.0 | 2.0 | 0.00 | 0.00 | 0.00 | 51 | |
| 20260902194519 | 94 | 244 | 0.0 | 4.0 | 0.00 | 0.00 | 0.00 | 52 | |
| 20260902193518 | 95 | 218 | 1.0 | 3.0 | 0.00 | 0.00 | 0.00 | 52 | |
| 20260902192516 | 95 | 217 | 0.0 | 2.0 | 0.00 | 0.00 | 0.00 | 51 | |
| 20260902191515 | 95 | 228 | 1.0 | 2.0 | 0.00 | 0.00 | 0.00 | 51 | |
| 20260902190517 | 95 | 248 | 0.0 | 1.0 | 0.00 | 0.00 | 0.00 | 50 | |
| 20260902185519 | 94 | 218 | 1.0 | 3.0 | 0.00 | 0.00 | 0.00 | 51 | |
| 20260902184517 | 94 | 241 | 1.0 | 4.0 | 0.00 | 0.00 | 0.00 | 51 | |
| 20260902183522 | 95 | 265 | 0.0 | 3.0 | 0.00 | 0.00 | 0.00 | 51 | |
| 20260902182537 | 95 | 236 | 1.0 | 2.0 | 0.00 | 0.00 | 0.00 | 51 | |
| 20260902181518 | 95 | 251 | 0.0 | 3.0 | 0.00 | 0.00 | 0.00 | 51 | |
| 20260902180518 | 95 | 237 | 0.0 | 2.0 | 0.00 | 0.00 | 0.00 | 51 | |
| 20260902175516 | 95 | 217 | 2.0 | 4.0 | 0.00 | 0.00 | 0.00 | 51 | |
| 20260902174541 | 95 | 218 | 1.0 | 3.0 | 0.00 | 0.00 | 0.00 | 52 | |
| 20260902173517 | 94 | 233 | 1.0 | 3.0 | 0.00 | 0.00 | 0.00 | 54 | |
| 20260902172538 | 94 | 228 | 0.0 | 3.0 | 0.00 | 0.00 | 0.00 | 57 | |
| 20260902171515 | 93 | 237 | 0.0 | 2.0 | 0.00 | 0.00 | 0.00 | 56 | |
| 20260902170516 | 93 | 262 | 1.0 | 4.0 | 0.00 | 0.00 | 0.00 | 57 | |
| 20260902165520 | 93 | 272 | 1.0 | 3.0 | 0.00 | 0.00 | 0.00 | 56 | |
| 20260902164518 | 93 | 223 | 0.0 | 3.0 | 0.00 | 0.00 | 0.00 | 57 | |
| 20260902163519 | 93 | 259 | 0.0 | 2.0 | 0.00 | 0.00 | 0.00 | 57 | |
| 20260902162536 | 92 | 254 | 0.0 | 1.0 | 0.00 | 0.00 | 0.00 | 58 | |
| 20260902161517 | 92 | 242 | 0.0 | 1.0 | 0.00 | 0.00 | 0.00 | 57 | |
| 20260902160515 | 92 | 237 | 0.0 | 2.0 | 0.00 | 0.00 | 0.00 | 58 | |
| 20260902155536 | 91 | 243 | 0.0 | 1.0 | 0.00 | 0.00 | 0.00 | 59 | |
| 20260902154515 | 90 | 270 | 0.0 | 3.0 | 0.00 | 0.00 | 0.00 | 59 | |
| 20260902153517 | 91 | 269 | 1.0 | 3.0 | 0.00 | 0.00 | 0.00 | 59 | |
| 20260902152517 | 91 | 213 | 0.0 | 1.0 | 0.00 | 0.00 | 0.00 | 60 | |
| 20260902151519 | 90 | 266 | 0.0 | 1.0 | 0.00 | 0.00 | 0.00 | 61 | |
| 20260902150522 | 90 | 225 | 0.0 | 2.0 | 0.00 | 0.00 | 0.00 | 63 | |
| 20260902145517 | 89 | 281 | 0.0 | 1.0 | 0.00 | 0.00 | 0.00 | 63 | |
| 20260902144517 | 89 | 264 | 0.0 | 2.0 | 0.00 | 0.00 | 0.00 | 64 | |
| 20260902143518 | 88 | 245 | 0.0 | 1.0 | 0.00 | 0.00 | 0.00 | 65 | |
| 20260902142516 | 87 | 243 | 0.0 | 1.0 | 0.00 | 0.00 | 0.00 | 66 | |
| 20260902141517 | 86 | 244 | 0.0 | 1.0 | 0.00 | 0.00 | 0.00 | 67 | |
| 20260902140516 | 86 | 256 | 0.0 | 2.0 | 0.00 | 0.00 | 0.00 | 68 | |
| 20260902135519 | 85 | 285 | 0.0 | 1.0 | 0.00 | 0.00 | 0.00 | 68 | |
| 20260902134515 | 85 | 243 | 0.0 | 1.0 | 0.00 | 0.00 | 0.00 | 68 | |
| 20260902133516 | 85 | 229 | 0.0 | 1.0 | 0.00 | 0.00 | 0.00 | 69 | |
| 20260902132515 | 85 | 238 | 0.0 | 1.0 | 0.00 | 0.00 | 0.00 | 69 | |
| 20260902131516 | 84 | 231 | 0.0 | 1.0 | 0.00 | 0.00 | 0.00 | 70 | |
| 20260902130519 | 83 | 0.0 | 0.0 | 0.00 | 0.00 | 0.00 | 71 | ||
| 20260902125540 | 82 | 245 | 0.0 | 2.0 | 0.00 | 0.00 | 0.00 | 71 | |
| 20260902124518 | 82 | 0.0 | 0.0 | 0.00 | 0.00 | 0.00 | 74 | ||
| 20260902123515 | 80 | 0.0 | 0.0 | 0.00 | 0.00 | 0.00 | 76 | ||
| 20260902122538 | 79 | 0.0 | 0.0 | 0.00 | 0.00 | 0.00 | 78 | ||
| 20260902121519 | 78 | 0.0 | 0.0 | 0.00 | 0.00 | 0.00 | 80 | ||
| 20260902120519 | 77 | 171 | 0.0 | 1.0 | 0.00 | 0.00 | 0.00 | 81 | |
| 20260902115516 | 77 | 0.0 | 0.0 | 0.00 | 0.00 | 0.00 | 82 | ||
| 20260902114518 | 76 | 193 | 0.0 | 1.0 | 0.00 | 0.00 | 0.00 | 82 | |
| 20260902113521 | 76 | 0.0 | 0.0 | 0.00 | 0.00 | 0.00 | 82 | ||
| 20260902112515 | 76 | 202 | 0.0 | 1.0 | 0.00 | 0.00 | 0.00 | 82 | |
| 20260902111515 | 76 | 0.0 | 0.0 | 0.00 | 0.00 | 0.00 | 82 | ||
| 20260902110516 | 76 | 0.0 | 0.0 | 0.00 | 0.00 | 0.00 | 82 | ||
| 20260902105520 | 76 | 0.0 | 0.0 | 0.00 | 0.00 | 0.00 | 82 | ||
| 20260902104557 | 76 | 0.0 | 0.0 | 0.00 | 0.00 | 0.00 | 82 | ||
| 20260902103517 | 76 | 0.0 | 0.0 | 0.00 | 0.00 | 0.00 | 81 | ||
| 20260902102521 | 77 | 0.0 | 0.0 | 0.00 | 0.00 | 0.00 | 81 | ||
| 20260902101515 | 77 | 0.0 | 0.0 | 0.00 | 0.00 | 0.00 | 81 | ||
| 20260902100518 | 77 | 0.0 | 0.0 | 0.00 | 0.00 | 0.00 | 81 | ||
| 20260902095518 | 77 | 0.0 | 0.0 | 0.00 | 0.00 | 0.00 | 81 | ||
| 20260902094516 | 77 | 0.0 | 0.0 | 0.00 | 0.00 | 0.00 | 82 | ||
| 20260902093539 | 77 | 0.0 | 0.0 | 0.00 | 0.00 | 0.00 | 81 | ||
| 20260902092519 | 77 | 197 | 0.0 | 1.0 | 0.00 | 0.00 | 0.00 | 81 | |
| 20260902091514 | 77 | 0.0 | 0.0 | 0.00 | 0.00 | 0.00 | 81 | ||
| 20260902090518 | 77 | 0.0 | 0.0 | 0.00 | 0.00 | 0.00 | 80 | ||
| 20260902085516 | 78 | 0.0 | 0.0 | 0.00 | 0.00 | 0.00 | 80 | ||
| 20260902084516 | 78 | 0.0 | 0.0 | 0.00 | 0.00 | 0.00 | 79 | ||
| 20260902083520 | 78 | 0.0 | 0.0 | 0.00 | 0.00 | 0.00 | 79 | ||
| 20260902082520 | 78 | 0.0 | 0.0 | 0.00 | 0.00 | 0.00 | 78 | ||
| 20260902081517 | 78 | 0.0 | 0.0 | 0.00 | 0.00 | 0.00 | 78 | ||
| 20260902080518 | 79 | 206 | 0.0 | 1.0 | 0.00 | 0.00 | 0.00 | 77 | |
| 20260902075515 | 79 | 0.0 | 0.0 | 0.00 | 0.00 | 0.00 | 77 | ||
| 20260902074537 | 79 | 0.0 | 0.0 | 0.00 | 0.00 | 0.00 | 76 | ||
| 20260902073536 | 79 | 0.0 | 0.0 | 0.00 | 0.00 | 0.00 | 76 | ||
| 20260902072516 | 79 | 0.0 | 0.0 | 0.00 | 0.00 | 0.00 | 76 | ||
| 20260902071539 | 80 | 211 | 0.0 | 1.0 | 0.00 | 0.00 | 0.00 | 76 | |
| 20260902070537 | 80 | 211 | 0.0 | 1.0 | 0.00 | 0.00 | 0.00 | 76 | |
| 20260902065517 | 79 | 221 | 0.0 | 1.0 | 0.00 | 0.00 | 0.00 | 76 | |
| 20260902064515 | 80 | 0.0 | 0.0 | 0.00 | 0.00 | 0.00 | 76 | ||
| 20260902063515 | 80 | 0.0 | 0.0 | 0.00 | 0.00 | 0.00 | 76 | ||
| 20260902062516 | 80 | 0.0 | 0.0 | 0.00 | 0.00 | 0.00 | 75 | ||
| 20260902061557 | 80 | 0.0 | 0.0 | 0.00 | 0.00 | 0.00 | 75 | ||
| 20260902060517 | 80 | 0.0 | 0.0 | 0.00 | 0.00 | 0.00 | 75 | ||
| 20260902055519 | 80 | 0.0 | 0.0 | 0.00 | 0.00 | 0.00 | 74 | ||
| 20260902054535 | 81 | 0.0 | 0.0 | 0.00 | 0.00 | 0.00 | 74 | ||
| 20260902053521 | 81 | 0.0 | 0.0 | 0.00 | 0.00 | 0.00 | 74 | ||
| 20260902052518 | 81 | 0.0 | 0.0 | 0.00 | 0.00 | 0.00 | 73 | ||
| 20260902051516 | 81 | 0.0 | 0.0 | 0.00 | 0.00 | 0.00 | 73 | ||
| 20260902050516 | 81 | 212 | 0.0 | 1.0 | 0.00 | 0.00 | 0.00 | 73 | |
| 20260902045517 | 81 | 0.0 | 0.0 | 0.00 | 0.00 | 0.00 | 72 | ||
| 20260902044537 | 81 | 0.0 | 0.0 | 0.00 | 0.00 | 0.00 | 72 | ||
| 20260902043518 | 82 | 0.0 | 0.0 | 0.00 | 0.00 | 0.00 | 72 | ||
| 20260902042518 | 82 | 0.0 | 0.0 | 0.00 | 0.00 | 0.00 | 71 | ||
| 20260902041518 | 82 | 0.0 | 0.0 | 0.00 | 0.00 | 0.00 | 71 | ||
| 20260902040516 | 82 | 0.0 | 0.0 | 0.00 | 0.00 | 0.00 | 70 | ||
| 20260902035516 | 82 | 0.0 | 0.0 | 0.00 | 0.00 | 0.00 | 70 | ||
| 20260902034517 | 82 | 0.0 | 0.0 | 0.00 | 0.00 | 0.00 | 70 | ||
| 20260902033520 | 82 | 0.0 | 0.0 | 0.00 | 0.00 | 0.00 | 70 | ||
| 20260902032515 | 83 | 0.0 | 0.0 | 0.00 | 0.00 | 0.00 | 70 | ||
| 20260902031518 | 83 | 0.0 | 0.0 | 0.00 | 0.00 | 0.00 | 70 | ||
| 20260902030516 | 83 | 0.0 | 0.0 | 0.00 | 0.00 | 0.00 | 70 | ||
| 20260902025516 | 83 | 0.0 | 0.0 | 0.00 | 0.00 | 0.00 | 69 | ||
| 20260902024537 | 84 | 0.0 | 0.0 | 0.00 | 0.00 | 0.00 | 69 | ||
| 20260902023517 | 84 | 186 | 0.0 | 1.0 | 0.00 | 0.00 | 0.00 | 69 | |
| 20260902022515 | 84 | 0.0 | 0.0 | 0.00 | 0.00 | 0.00 | 69 | ||
| 20260902021515 | 84 | 0.0 | 0.0 | 0.00 | 0.00 | 0.00 | 68 | ||
| 20260902020515 | 84 | 0.0 | 0.0 | 0.00 | 0.00 | 0.00 | 68 | ||
| 20260902015519 | 84 | 0.0 | 0.0 | 0.00 | 0.00 | 0.00 | 67 | ||
| 20260902014520 | 85 | 0.0 | 0.0 | 0.00 | 0.00 | 0.00 | 67 | ||
| 20260902013520 | 85 | 0.0 | 0.0 | 0.00 | 0.00 | 0.00 | 67 | ||
| 20260902012522 | 85 | 0.0 | 0.0 | 0.00 | 0.00 | 0.00 | 66 | ||
| 20260902011537 | 86 | 0.0 | 0.0 | 0.00 | 0.00 | 0.00 | 65 | ||
| 20260902010516 | 86 | 0.0 | 0.0 | 0.00 | 0.00 | 0.00 | 65 | ||
| 20260902005517 | 86 | 0.0 | 0.0 | 0.00 | 0.00 | 0.00 | 64 | ||
| 20260902004518 | 87 | 0.0 | 0.0 | 0.00 | 0.00 | 0.00 | 64 | ||
| 20260902003518 | 87 | 209 | 0.0 | 1.0 | 0.00 | 0.00 | 0.00 | 63 | |
| 20260902002536 | 88 | 0.0 | 0.0 | 0.00 | 0.00 | 0.00 | 63 | ||
| 20260902001517 | 88 | 213 | 0.0 | 1.0 | 0.00 | 0.00 | 0.00 | 61 | |
| 20260902000535 | 89 | 0.0 | 0.0 | 0.00 | 0.00 | 0.00 | 59 | ||
| 20260901235535 | 89 | 0.0 | 0.0 | 0.00 | 0.00 | 0.00 | 59 | ||
| 20260901234515 | 90 | 223 | 0.0 | 1.0 | 0.00 | 0.00 | 0.00 | 58 | |
| 20260901233540 | 90 | 0.0 | 0.0 | 0.00 | 0.00 | 0.00 | 57 | ||
| 20260901232516 | 90 | 0.0 | 0.0 | 0.00 | 0.00 | 0.00 | 56 | ||
| 20260901231519 | 91 | 235 | 0.0 | 1.0 | 0.00 | 0.00 | 0.00 | 56 | |
| 20260901230517 | 91 | 228 | 0.0 | 1.0 | 0.00 | 0.00 | 0.00 | 55 | |
| 20260901225517 | 91 | 232 | 0.0 | 1.0 | 0.00 | 0.00 | 0.00 | 54 | |
| 20260901224520 | 91 | 232 | 0.0 | 1.0 | 0.00 | 0.00 | 0.00 | 54 | |
| 20260901223515 | 92 | 223 | 0.0 | 1.0 | 0.00 | 0.00 | 0.00 | 52 | |
| 20260901222537 | 92 | 230 | 0.0 | 1.0 | 0.00 | 0.00 | 0.00 | 52 | |
| 20260901221521 | 92 | 223 | 1.0 | 2.0 | 0.00 | 0.00 | 0.00 | 52 | |
| 20260901220520 | 92 | 0.0 | 0.0 | 0.00 | 0.00 | 0.00 |